Flight Track Log - Related Links

Times and Time Zones

All times are in EDT time to prevent confusion due to time zone crossing. See the UPS106 flight status page for this flight to view local times or setup timezone preferences in your user account.

Time Position Orientation Groundspeed Altitude Reporting Facility
EDT Latitude Longitude Course Direction KTS MPH feet Rate Location/Type
Fri 07:58:41 PM 41.9640 -72.8090 262° West 251 289 7,700  Level FlightAware ADS-B
Fri 07:59:04 PM 41.9600 -72.8470 262° West 260 299 9,500 3,469 Climbing FlightAware ADS-B
Fri 07:59:45 PM 41.9520 -72.9220 262° West 325 374 11,400 3,417 Climbing FlightAware ADS-B
Fri 08:00:16 PM 41.9450 -72.9850 262° West 345 397 13,600 1,800 Climbing FlightAware ADS-B
Fri 08:01:05 PM 41.9330 -73.0900 261° West 344 396 13,800 132 Climbing FlightAware ADS-B
Fri 08:01:47 PM 41.9230 -73.1780 261° West 339 390 13,800  Level FlightAware ADS-B
Fri 08:02:39 PM 41.8960 -73.2830 251° West 356 410 13,800  Level FlightAware ADS-B
Fri 08:03:07 PM 41.8710 -73.3330 236° Southwest 358 412 13,800  Level FlightAware ADS-B
Fri 08:03:38 PM 41.8430 -73.3890 236° Southwest 358 412 13,800  Level FlightAware ADS-B
Fri 08:04:13 PM 41.8090 -73.4530 235° Southwest 359 413 13,800 -148 Level FlightAware ADS-B
Fri 08:04:59 PM 41.7650 -73.5380 235° Southwest 356 410 13,600 -380 Descending FlightAware ADS-B
Fri 08:05:32 PM 41.7350 -73.5970 236° Southwest 358 412 13,300 -533 Descending FlightAware ADS-B
Fri 08:06:29 PM 41.6810 -73.7000 235° Southwest 355 409 12,800 -483 Descending FlightAware ADS-B
Fri 08:06:59 PM 41.6530 -73.7550 236° Southwest 356 410 12,600 -469 Descending FlightAware ADS-B
Fri 08:07:33 PM 41.6210 -73.8160 235° Southwest 351 404 12,300 -537 Descending FlightAware ADS-B
Fri 08:08:06 PM 41.5900 -73.8740 234° Southwest 351 404 12,000 -506 Descending FlightAware ADS-B
Fri 08:08:56 PM 41.5430 -73.9640 235° Southwest 350 403 11,600 -788 Descending FlightAware ADS-B
Fri 08:09:45 PM 41.5030 -74.0410 235° Southwest 285 328 10,700 -1,636 Descending FlightAware ADS-B
Fri 08:10:13 PM 41.4820 -74.0820 236° Southwest 280 322 9,500 -2,000 Descending FlightAware ADS-B
Fri 08:10:42 PM 41.4610 -74.1200 234° Southwest 266 306 8,800 -1,560 Descending FlightAware ADS-B
Fri 08:11:03 PM 41.4460 -74.1480 234° Southwest 264 304 8,200 -1,615 Descending FlightAware ADS-B
Fri 08:11:34 PM 41.4250 -74.1890 236° Southwest 263 303 7,400 -984 Descending FlightAware ADS-B
Fri 08:12:04 PM 41.4050 -74.2260 234° Southwest 263 303 7,200 -517 Descending FlightAware ADS-B
Fri 08:12:32 PM 41.3840 -74.2670 236° Southwest 264 304 6,900 -421 Descending FlightAware ADS-B
Fri 08:13:01 PM 41.3630 -74.3050 234° Southwest 261 300 6,800 -113 Descending FlightAware ADS-B
Fri 08:13:25 PM 41.3470 -74.3360 235° Southwest 263 303 6,800  Level FlightAware ADS-B
Fri 08:13:46 PM 41.3320 -74.3640 235° Southwest 265 305 6,800  Level FlightAware ADS-B
Fri 08:14:05 PM 41.3180 -74.3900 234° Southwest 266 306 6,800  Level FlightAware ADS-B
Fri 08:14:40 PM 41.2930 -74.4350 234° Southwest 268 308 6,800  Level FlightAware ADS-B
Fri 08:15:03 PM 41.2660 -74.4540 208° Southwest 280 322 6,800  Level FlightAware ADS-B
Fri 08:15:32 PM 41.2310 -74.4690 198° South 283 326 6,800 -211 Level FlightAware ADS-B
Fri 08:16:00 PM 41.1960 -74.4840 198° South 278 320 6,600 -720 Descending FlightAware ADS-B
Fri 08:16:22 PM 41.1690 -74.4950 197° South 275 316 6,200 -1,038 Descending FlightAware ADS-B
Fri 08:16:52 PM 41.1320 -74.5100 197° South 273 314 5,700 -1,119 Descending FlightAware ADS-B
Fri 08:17:21 PM 41.0970 -74.5253 198° South 272 313 5,100 -1,019 Descending FlightAware ADS-B
Fri 08:17:45 PM 41.0689 -74.5374 198° South 270 311 4,800 -214 Descending FlightAware ADS-B
Fri 08:18:45 PM 40.9930 -74.5490 187° South 276 318 4,800  Level FlightAware ADS-B
Fri 08:19:15 PM 40.9560 -74.5520 184° South 276 318 4,800  Level FlightAware ADS-B
Fri 08:19:31 PM 40.9360 -74.5530 182° South 275 316 4,800  Level FlightAware ADS-B
Fri 08:19:48 PM 40.9150 -74.5540 182° South 276 318 4,800  Level FlightAware ADS-B
Fri 08:20:14 PM 40.8800 -74.5560 182° South 275 316 4,800 -102 Level FlightAware ADS-B
Fri 08:20:47 PM 40.8390 -74.5597 184° South 250 288 4,700  Descending FlightAware ADS-B
Fri 08:21:04 PM 40.8212 -74.5641 191° South 235 270 4,800 78 Climbing FlightAware ADS-B
Fri 08:22:04 PM 40.7561 -74.5725 186° South 241 277 4,800  Level FlightAware ADS-B
Fri 08:22:59 PM 40.6960 -74.5621 173° South 238 274 4,800  Level FlightAware ADS-B
Fri 08:23:49 PM 40.6420 -74.5530 173° South 240 276 4,800  Level FlightAware ADS-B
Fri 08:24:17 PM 40.6110 -74.5480 173° South 239 275 4,800  Level FlightAware ADS-B
Fri 08:24:38 PM 40.5870 -74.5440 173° South 237 273 4,800  Level FlightAware ADS-B
Fri 08:25:00 PM 40.5640 -74.5410 174° South 239 275 4,800  Level FlightAware ADS-B
Fri 08:25:32 PM 40.5290 -74.5340 171° South 240 276 4,800  Level FlightAware ADS-B
Fri 08:26:05 PM 40.4980 -74.5080 147° Southeast 242 278 4,800 -295 Level FlightAware ADS-B
Fri 08:26:33 PM 40.4730 -74.4850 145° Southeast 237 273 4,500 -766 Descending FlightAware ADS-B
Fri 08:26:52 PM 40.4550 -74.4690 146° Southeast 236 272 4,200 -1,021 Descending FlightAware ADS-B
Fri 08:27:20 PM 40.4350 -74.4390 131° Southeast 237 273 3,700 -955 Descending FlightAware ADS-B
Fri 08:27:36 PM 40.4280 -74.4190 115° Southeast 235 270 3,500 -732 Descending FlightAware ADS-B
Fri 08:28:01 PM 40.4170 -74.3870 114° Southeast 235 270 3,200 -585 Descending FlightAware ADS-B
Fri 08:28:17 PM 40.4188 -74.3638 84° East 236 272 3,100 -286 Descending FlightAware ADS-B
Fri 08:28:22 PM 40.4200 -74.3570 77° East 221 254 3,100 -500 Level FlightAware ADS-B
Fri 08:28:29 PM 40.4222 -74.3488 71° East 215 247 3,000 -706 Descending FlightAware ADS-B
Fri 08:28:39 PM 40.4274 -74.3389 55° Northeast 212 244 2,900 -429 Descending FlightAware ADS-B
Fri 08:28:43 PM 40.4301 -74.3359 40° Northeast 199 229 2,900 -480 Level FlightAware ADS-B
Fri 08:29:04 PM 40.4453 -74.3220 35° Northeast 187 215 2,700 -111 Descending FlightAware ADS-B
Fri 08:29:37 PM 40.4710 -74.3047 27° Northeast 185 213 2,800 102 Climbing FlightAware ADS-B
Fri 08:30:03 PM 40.4907 -74.2924 25° Northeast 182 209 2,800  Level FlightAware ADS-B
Fri 08:30:37 PM 40.5166 -74.2762 25° Northeast 182 209 2,800  Level FlightAware ADS-B
Fri 08:30:52 PM 40.5284 -74.2689 25° Northeast 183 211 2,800  Level FlightAware ADS-B
Fri 08:31:08 PM 40.5405 -74.2610 26° Northeast 183 211 2,800  Level FlightAware ADS-B
Fri 08:31:16 PM 40.5462 -74.2574 26° Northeast 183 211 2,800 -783 Level FlightAware ADS-B
Fri 08:31:31 PM 40.5578 -74.2501 26° Northeast 187 215 2,500 -1,000 Descending FlightAware ADS-B
Fri 08:31:46 PM 40.5699 -74.2425 26° Northeast 188 216 2,300 -968 Descending FlightAware ADS-B
Fri 08:32:02 PM 40.5824 -74.2346 26° Northeast 191 220 2,000 -1,091 Descending FlightAware ADS-B
Fri 08:32:19 PM 40.5956 -74.2261 26° Northeast 189 217 1,700 -1,000 Descending FlightAware ADS-B
Fri 08:32:32 PM 40.6062 -74.2194 26° Northeast 175 201 1,500 -1,034 Descending FlightAware ADS-B
Fri 08:32:48 PM 40.6169 -74.2127 25° Northeast 162 186 1,200 -968 Descending FlightAware ADS-B
Fri 08:33:03 PM 40.6265 -74.2066 26° Northeast 147 169 1,000 -828 Descending FlightAware ADS-B
Fri 08:33:17 PM 40.6341 -74.2017 26° Northeast 131 151 800 -621 Descending FlightAware ADS-B
Fri 08:33:32 PM 40.6421 -74.1967 25° Northeast 123 142 700 -563 Descending FlightAware ADS-B
Fri 08:33:49 PM 40.6506 -74.1913 26° Northeast 123 142 500 -727 Descending FlightAware ADS-B
Fri 08:34:05 PM 40.6591 -74.1860 25° Northeast 124 143 300 -643 Descending FlightAware ADS-B
Fri 08:34:17 PM 40.6651 -74.1821 26° Northeast 126 145 200 -500 Descending FlightAware ADS-B
Fri 08:34:47 PM 40.6800 -74.1730 25° Northeast 126 145 -400 Descending FlightAware ADS-B

Login

Don't have an account? Register now (free) for customized features, flight alerts, and more!